Terminal Aerodrome Forecast
Issued by NWS

Home | Current Version | Previous Version | Text Only | Print | Product List | Glossary Off
Versions: 1 2 3 4 5 6 7 8 9 10 11 12 13 14 15 16 17 18 19 20 21 22 23 24

000
FTUS43 KLOT 232120 AAA
TAFGYY
TAF AMD
KGYY 232120Z 2321/2418 04006KT 6SM -SHRA VCTS BKN050CB
      TEMPO 2322/2402 3SM SHRA SCT010 OVC025
     FM240200 06006KT P6SM VCSH SCT020 OVC030
     FM240600 05006KT 6SM BR VCSH SCT010 OVC020
     FM240800 03007KT 5SM -SHRA BR SCT006 OVC010=

USA.gov is the U.S. government's official web portal to all federal, state and local government web resources and services.